NORTHEAST SUFFOLK  -  Rip Current Statement Rip Current Statement        NORTHERN NASSAU  -  Rip Current Statement Rip Current Statement        NORTHERN QUEENS  -  Rip Current Statement Rip Current Statement        NORTHWEST SUFFOLK  -  Rip Current Statement Rip Current Statement        SOUTHEAST SUFFOLK  -  Rip Current Statement Rip Current Statement        SOUTHERN NASSAU  -  Rip Current Statement Rip Current Statement        SOUTHERN QUEENS  -  Rip Current Statement Rip Current Statement        SOUTHWEST SUFFOLK  -  Rip Current Statement Rip Current Statement      

Active alerts

Northern Queens
  Details for Northern Queens Rip Current Statement
Southern Queens
  Details for Southern Queens Rip Current Statement
Northern Nassau
  Details for Northern Nassau Rip Current Statement
Southern Nassau
  Details for Southern Nassau Rip Current Statement
Northwest Suffolk
  Details for Northwest Suffolk Rip Current Statement
Southwest Suffolk
  Details for Southwest Suffolk Rip Current Statement
Northeast Suffolk
  Details for Northeast Suffolk Rip Current Statement
Southeast Suffolk
  Details for Southeast Suffolk Rip Current Statement


WXM80 ListenWXM80 Stop

You find our weather info also at:

UK Metoffice

WeatherCloud

Weather Underground

Northeastern Weather Network

AWEKAS

Citizen Weather Observer Program (CWOP)

HAMweather, WeatherForYou, PWS Weather


Weather Underground History page Text

Daily Summary for March 8, 2016 Units:  English    Metric   Both
« Previous Day
Next Day »
Daily Weekly Monthly Yearly Custom
  High: Low: Average:
Temperature: 60.1 °F 37.5 °F 47.2 °F
Dew Point: 44.2 °F 35.1 °F 39.8 °F
Humidity: 95 % 52 % 77 %
Wind Speed: 7.4 mph 0.0 mph 1.4 mph
Wind Gust: 13.8 mph - -
Wind:- - ESE
Pressure: 30.16 in 30.04 in -
Precipitation: 0.00 in    
Historical Graphs
 
 
Tabular Data for March 8, 2016
Time Temperature Dew Point Pressure Wind Wind Speed Wind Gust Humidity Rainfall Rate (Hourly)
00:03 47.3 °F 39.1 °F 30.04 in NE 0.3 mph 2.3 mph 73 % 0.00 in
00:08 46.8 °F 38.6 °F 30.04 in NE 0.7 mph 2.3 mph 73 % 0.00 in
00:18 46.0 °F 38.9 °F 30.04 in Calm     76 % 0.00 in
00:23 45.7 °F 38.6 °F 30.04 in Calm     76 % 0.00 in
00:28 45.3 °F 38.5 °F 30.04 in Calm     77 % 0.00 in
00:34 44.9 °F 38.5 °F 30.04 in Calm     78 % 0.00 in
00:39 44.6 °F 38.2 °F 30.04 in Calm     78 % 0.00 in
00:44 44.2 °F 38.1 °F 30.04 in Calm     79 % 0.00 in
00:49 43.9 °F 38.1 °F 30.04 in NE 0.2 mph 1.2 mph 80 % 0.00 in
00:54 43.5 °F 37.7 °F 30.04 in NE 1.4 mph 2.3 mph 80 % 0.00 in
00:59 43.3 °F 37.9 °F 30.05 in Calm     81 % 0.00 in
01:04 43.1 °F 37.7 °F 30.05 in Calm     81 % 0.00 in
01:09 42.9 °F 37.8 °F 30.05 in Calm     82 % 0.00 in
01:14 42.7 °F 37.6 °F 30.05 in Calm     82 % 0.00 in
01:19 42.5 °F 37.7 °F 30.05 in Calm     83 % 0.00 in
01:25 42.4 °F 37.6 °F 30.05 in Calm     83 % 0.00 in
01:30 42.2 °F 37.4 °F 30.06 in Calm     83 % 0.00 in
01:35 42.0 °F 36.9 °F 30.06 in Calm     82 % 0.00 in
01:40 41.8 °F 36.4 °F 30.06 in Calm     81 % 0.00 in
01:45 41.5 °F 36.1 °F 30.06 in Calm     81 % 0.00 in
01:50 41.2 °F 36.1 °F 30.05 in Calm     82 % 0.00 in
01:55 41.0 °F 36.2 °F 30.05 in Calm     83 % 0.00 in
02:00 40.8 °F 36.0 °F 30.05 in Calm     83 % 0.00 in
02:05 40.6 °F 36.1 °F 30.05 in Calm     84 % 0.00 in
02:10 40.4 °F 35.9 °F 30.05 in Calm     84 % 0.00 in
02:16 40.3 °F 36.1 °F 30.05 in Calm     85 % 0.00 in
02:21 40.1 °F 36.0 °F 30.05 in Calm     85 % 0.00 in
02:26 39.9 °F 36.1 °F 30.05 in Calm     86 % 0.00 in
02:31 39.7 °F 35.9 °F 30.05 in Calm     86 % 0.00 in
02:36 39.6 °F 35.8 °F 30.05 in Calm     86 % 0.00 in
02:41 39.5 °F 36.0 °F 30.05 in Calm     87 % 0.00 in
02:46 39.4 °F 35.9 °F 30.05 in Calm     87 % 0.00 in
02:51 39.1 °F 35.6 °F 30.05 in NE 0.8 mph 1.2 mph 87 % 0.00 in
02:56 38.9 °F 35.4 °F 30.05 in NE 1.1 mph 3.5 mph 87 % 0.00 in
03:01 38.8 °F 35.3 °F 30.05 in NE 0.1 mph 1.2 mph 87 % 0.00 in
03:07 38.7 °F 35.5 °F 30.06 in Calm     88 % 0.00 in
03:17 38.4 °F 35.2 °F 30.06 in Calm     88 % 0.00 in
03:22 38.3 °F 35.3 °F 30.06 in Calm   1.2 mph 89 % 0.00 in
03:32 38.2 °F 35.5 °F 30.07 in NE 0.1 mph 1.2 mph 90 % 0.00 in
03:37 38.0 °F 35.3 °F 30.07 in NE 0.4 mph 1.2 mph 90 % 0.00 in
03:42 37.9 °F 35.2 °F 30.07 in Calm   1.2 mph 90 % 0.00 in
03:47 37.8 °F 35.1 °F 30.07 in Calm     90 % 0.00 in
03:52 37.8 °F 35.1 °F 30.07 in Calm     90 % 0.00 in
03:58 37.7 °F 35.3 °F 30.07 in Calm     91 % 0.00 in
04:03 37.7 °F 35.3 °F 30.08 in Calm   1.2 mph 91 % 0.00 in
04:08 37.7 °F 35.3 °F 30.08 in NE 0.2 mph 1.2 mph 91 % 0.00 in
04:13 37.6 °F 35.2 °F 30.08 in Calm   1.2 mph 91 % 0.00 in
04:18 37.6 °F 35.2 °F 30.08 in Calm     91 % 0.00 in
04:23 37.6 °F 35.2 °F 30.09 in Calm     91 % 0.00 in
04:28 37.5 °F 35.1 °F 30.09 in Calm     91 % 0.00 in
04:33 37.5 °F 35.1 °F 30.09 in Calm     91 % 0.00 in
04:38 37.5 °F 35.4 °F 30.09 in NE 0.2 mph 1.0 mph 92 % 0.00 in
04:43 37.5 °F 35.4 °F 30.08 in NE 0.5 mph 2.0 mph 92 % 0.00 in
04:54 37.6 °F 35.5 °F 30.08 in Calm   1.2 mph 92 % 0.00 in
04:59 37.6 °F 35.5 °F 30.08 in Calm     92 % 0.00 in
05:04 37.7 °F 35.9 °F 30.08 in Calm     93 % 0.00 in
05:09 37.7 °F 35.9 °F 30.08 in Calm     93 % 0.00 in
05:14 37.8 °F 36.0 °F 30.08 in Calm     93 % 0.00 in
05:19 37.9 °F 36.1 °F 30.08 in Calm     93 % 0.00 in
05:24 37.9 °F 36.1 °F 30.08 in Calm     93 % 0.00 in
05:29 38.1 °F 36.3 °F 30.09 in Calm     93 % 0.00 in
05:34 38.2 °F 36.4 °F 30.09 in Calm     93 % 0.00 in
05:40 38.3 °F 36.7 °F 30.09 in NE 0.5 mph 1.0 mph 94 % 0.00 in
05:50 38.4 °F 36.8 °F 30.10 in Calm   1.2 mph 94 % 0.00 in
05:55 38.4 °F 36.6 °F 30.09 in Calm   1.2 mph 93 % 0.00 in
06:00 38.5 °F 36.7 °F 30.09 in Calm     93 % 0.00 in
06:05 38.4 °F 36.6 °F 30.09 in Calm     93 % 0.00 in
06:10 38.4 °F 36.6 °F 30.10 in Calm     93 % 0.00 in
06:15 38.4 °F 36.6 °F 30.10 in Calm     93 % 0.00 in
06:20 38.4 °F 36.6 °F 30.11 in Calm     93 % 0.00 in
06:25 38.4 °F 36.6 °F 30.11 in NE 0.9 mph 2.0 mph 93 % 0.00 in
06:31 38.3 °F 36.5 °F 30.10 in Calm     93 % 0.00 in
06:36 38.3 °F 36.5 °F 30.11 in NE 0.7 mph 1.2 mph 93 % 0.00 in
06:41 38.2 °F 36.4 °F 30.11 in Calm     93 % 0.00 in
06:46 38.2 °F 36.4 °F 30.11 in Calm     93 % 0.00 in
06:51 38.3 °F 36.5 °F 30.11 in Calm     93 % 0.00 in
06:56 38.4 °F 36.6 °F 30.11 in Calm     93 % 0.00 in
07:01 38.6 °F 36.8 °F 30.11 in Calm     93 % 0.00 in
07:06 38.7 °F 36.9 °F 30.11 in Calm     93 % 0.00 in
07:11 38.9 °F 37.3 °F 30.12 in Calm     94 % 0.00 in
07:16 39.2 °F 37.6 °F 30.12 in Calm     94 % 0.00 in
07:22 39.7 °F 38.1 °F 30.12 in Calm     94 % 0.00 in
07:27 40.2 °F 38.9 °F 30.12 in Calm     95 % 0.00 in
07:32 41.0 °F 39.7 °F 30.12 in Calm     95 % 0.00 in
07:37 41.8 °F 40.5 °F 30.12 in Calm     95 % 0.00 in
07:42 42.6 °F 41.3 °F 30.12 in Calm     95 % 0.00 in
07:47 43.3 °F 41.7 °F 30.13 in Calm     94 % 0.00 in
07:52 43.8 °F 41.6 °F 30.13 in NE 0.8 mph 2.3 mph 92 % 0.00 in
07:57 44.5 °F 42.0 °F 30.13 in NE 1.0 mph 2.0 mph 91 % 0.00 in
08:02 45.1 °F 42.1 °F 30.14 in NE 1.0 mph 2.3 mph 89 % 0.00 in
08:07 45.7 °F 42.3 °F 30.13 in NE 0.3 mph 1.2 mph 88 % 0.00 in
08:13 46.2 °F 41.9 °F 30.13 in NE 0.5 mph 2.3 mph 85 % 0.00 in
08:23 46.9 °F 41.7 °F 30.13 in NE 0.1 mph 1.2 mph 82 % 0.00 in
08:28 47.3 °F 41.8 °F 30.13 in Calm     81 % 0.00 in
08:33 47.6 °F 41.7 °F 30.13 in Calm     80 % 0.00 in
08:38 48.1 °F 42.2 °F 30.14 in Calm   1.2 mph 80 % 0.00 in
08:43 48.5 °F 42.3 °F 30.14 in NE 0.3 mph 1.2 mph 79 % 0.00 in
08:48 48.8 °F 42.2 °F 30.14 in NE 0.7 mph 2.3 mph 78 % 0.00 in
08:53 48.8 °F 42.2 °F 30.14 in NE 0.5 mph 1.2 mph 78 % 0.00 in
08:58 48.8 °F 41.9 °F 30.14 in NE 0.5 mph 1.2 mph 77 % 0.00 in
09:04 48.7 °F 41.8 °F 30.14 in NE 0.6 mph 2.3 mph 77 % 0.00 in
09:09 49.1 °F 42.5 °F 30.15 in NE 1.0 mph 2.3 mph 78 % 0.00 in
09:14 49.1 °F 41.9 °F 30.14 in NE 2.1 mph 3.5 mph 76 % 0.00 in
09:19 48.6 °F 41.4 °F 30.14 in NE 1.7 mph 4.0 mph 76 % 0.00 in
09:24 48.3 °F 41.8 °F 30.15 in NE 0.7 mph 2.3 mph 78 % 0.00 in
09:29 48.7 °F 41.8 °F 30.15 in NE 1.1 mph 2.3 mph 77 % 0.00 in
09:34 48.8 °F 41.6 °F 30.15 in NE 0.8 mph 1.2 mph 76 % 0.00 in
09:39 49.9 °F 43.3 °F 30.15 in NE 0.2 mph   78 % 0.00 in
09:44 50.5 °F 42.9 °F 30.15 in Calm   1.2 mph 75 % 0.00 in
09:49 51.1 °F 42.4 °F 30.15 in NE 0.9 mph 2.3 mph 72 % 0.00 in
09:55 51.5 °F 42.4 °F 30.15 in NE 1.1 mph 3.5 mph 71 % 0.00 in
10:00 52.0 °F 42.5 °F 30.15 in NE 1.5 mph 2.3 mph 70 % 0.00 in
10:05 51.9 °F 41.3 °F 30.15 in ENE 3.7 mph 4.6 mph 67 % 0.00 in
10:10 51.9 °F 42.4 °F 30.15 in ENE 1.1 mph 2.3 mph 70 % 0.00 in
10:15 52.0 °F 41.0 °F 30.15 in ENE 2.8 mph 4.6 mph 66 % 0.00 in
10:20 51.8 °F 41.2 °F 30.15 in ENE 1.8 mph 3.5 mph 67 % 0.00 in
10:25 52.5 °F 42.6 °F 30.15 in NE 2.0 mph 3.5 mph 69 % 0.00 in
10:30 52.6 °F 41.6 °F 30.15 in ENE 2.8 mph 4.6 mph 66 % 0.00 in
10:35 52.3 °F 41.7 °F 30.15 in ENE 2.5 mph 3.5 mph 67 % 0.00 in
10:36 52.3 °F 41.7 °F 30.15 in ENE 1.9 mph 3.5 mph 67 % 0.00 in
10:41 52.4 °F 42.5 °F 30.15 in NNE 2.1 mph 3.5 mph 69 % 0.00 in
10:46 52.8 °F 42.5 °F 30.16 in NE 3.1 mph 3.5 mph 68 % 0.00 in
10:51 53.0 °F 42.3 °F 30.16 in ENE 3.3 mph 4.6 mph 67 % 0.00 in
10:57 52.5 °F 41.5 °F 30.16 in ENE 4.0 mph 4.6 mph 66 % 0.00 in
11:02 51.8 °F 40.8 °F 30.16 in ENE 2.6 mph 4.6 mph 66 % 0.00 in
11:07 51.3 °F 39.9 °F 30.16 in ENE 3.3 mph 4.6 mph 65 % 0.00 in
11:12 51.3 °F 41.1 °F 30.16 in ENE 1.4 mph 4.6 mph 68 % 0.00 in
11:17 51.8 °F 40.4 °F 30.15 in ENE 1.9 mph 3.5 mph 65 % 0.00 in
11:22 51.9 °F 40.9 °F 30.15 in ENE 1.7 mph 3.5 mph 66 % 0.00 in
11:27 51.8 °F 40.4 °F 30.15 in ENE 2.0 mph 3.5 mph 65 % 0.00 in
11:32 51.5 °F 40.5 °F 30.14 in ENE 2.4 mph 3.5 mph 66 % 0.00 in
11:37 50.9 °F 39.9 °F 30.14 in ENE 3.0 mph 4.0 mph 66 % 0.00 in
11:48 50.4 °F 39.9 °F 30.14 in ENE 4.3 mph 6.9 mph 67 % 0.00 in
11:53 49.8 °F 40.0 °F 30.14 in East 3.7 mph 6.9 mph 69 % 0.00 in
11:58 49.9 °F 41.2 °F 30.14 in ENE 2.1 mph 3.5 mph 72 % 0.00 in
12:03 50.1 °F 41.1 °F 30.13 in ENE 4.0 mph 6.9 mph 71 % 0.00 in
12:08 49.8 °F 40.8 °F 30.14 in NE 3.3 mph 5.0 mph 71 % 0.00 in
12:13 49.6 °F 40.6 °F 30.13 in ENE 3.4 mph 4.6 mph 71 % 0.00 in
12:18 49.5 °F 41.2 °F 30.14 in ENE 2.9 mph 4.0 mph 73 % 0.00 in
12:23 49.8 °F 41.1 °F 30.13 in NE 2.4 mph 6.9 mph 72 % 0.00 in
12:28 50.2 °F 41.9 °F 30.12 in ENE 3.0 mph 3.5 mph 73 % 0.00 in
12:33 50.5 °F 41.4 °F 30.12 in ENE 4.7 mph 6.9 mph 71 % 0.00 in
12:39 50.9 °F 42.6 °F 30.12 in East 4.0 mph 7.0 mph 73 % 0.00 in
12:44 51.6 °F 42.9 °F 30.11 in ENE 3.1 mph 6.9 mph 72 % 0.00 in
12:49 52.1 °F 43.3 °F 30.11 in ENE 2.5 mph 5.8 mph 72 % 0.00 in
12:54 52.6 °F 43.5 °F 30.11 in NNE 2.2 mph 4.0 mph 71 % 0.00 in
13:04 55.0 °F 44.2 °F 30.10 in SSW 4.5 mph 6.9 mph 67 % 0.00 in
13:09 57.0 °F 43.7 °F 30.10 in South 6.2 mph 11.5 mph 61 % 0.00 in
13:14 58.2 °F 43.0 °F 30.10 in SSE 5.1 mph 10.4 mph 57 % 0.00 in
13:19 58.7 °F 43.0 °F 30.10 in SSE 6.6 mph 11.5 mph 56 % 0.00 in
13:24 59.0 °F 42.8 °F 30.10 in South 7.4 mph 11.5 mph 55 % 0.00 in
13:30 59.3 °F 43.1 °F 30.10 in SSW 4.9 mph 8.1 mph 55 % 0.00 in
13:35 59.6 °F 43.4 °F 30.10 in South 6.5 mph 7.0 mph 55 % 0.00 in
13:40 59.6 °F 42.9 °F 30.10 in SSE 3.1 mph 8.1 mph 54 % 0.00 in
13:45 59.9 °F 42.7 °F 30.11 in SSW 3.2 mph 5.8 mph 53 % 0.00 in
13:50 60.1 °F 42.4 °F 30.11 in SSW 4.2 mph 8.1 mph 52 % 0.00 in
13:55 60.0 °F 42.3 °F 30.10 in SE 6.9 mph 10.4 mph 52 % 0.00 in
14:00 59.8 °F 42.1 °F 30.11 in South 4.2 mph 9.0 mph 52 % 0.00 in
14:05 59.6 °F 41.9 °F 30.11 in South 3.7 mph 6.9 mph 52 % 0.00 in
14:10 59.7 °F 42.5 °F 30.11 in South 6.0 mph 9.0 mph 53 % 0.00 in
14:15 59.4 °F 41.8 °F 30.10 in SE 5.6 mph 12.7 mph 52 % 0.00 in
14:21 58.9 °F 42.3 °F 30.11 in South 3.4 mph 6.9 mph 54 % 0.00 in
14:26 58.7 °F 42.1 °F 30.11 in SSE 7.3 mph 10.4 mph 54 % 0.00 in
14:31 58.3 °F 42.2 °F 30.10 in South 2.5 mph 13.8 mph 55 % 0.00 in
14:36 58.0 °F 41.4 °F 30.10 in WSW 6.3 mph 11.5 mph 54 % 0.00 in
14:41 57.9 °F 41.3 °F 30.09 in South 4.8 mph 8.1 mph 54 % 0.00 in
14:46 58.0 °F 41.9 °F 30.10 in South 3.7 mph 6.9 mph 55 % 0.00 in
14:51 58.0 °F 41.9 °F 30.10 in SSW 3.9 mph 10.4 mph 55 % 0.00 in
14:56 57.8 °F 41.7 °F 30.10 in South 6.3 mph 10.4 mph 55 % 0.00 in
15:01 57.5 °F 41.9 °F 30.09 in South 5.4 mph 6.9 mph 56 % 0.00 in
15:06 57.3 °F 41.7 °F 30.09 in SSW 5.6 mph 6.9 mph 56 % 0.00 in
15:12 57.1 °F 41.5 °F 30.09 in South 3.3 mph 11.5 mph 56 % 0.00 in
15:17 56.9 °F 41.8 °F 30.09 in SE 4.2 mph 8.0 mph 57 % 0.00 in
15:22 56.7 °F 41.2 °F 30.09 in SSW 4.6 mph 8.1 mph 56 % 0.00 in
15:27 56.6 °F 41.5 °F 30.09 in SSE 2.8 mph 4.6 mph 57 % 0.00 in
15:32 56.6 °F 41.1 °F 30.09 in SE 2.6 mph 10.0 mph 56 % 0.00 in
15:37 56.6 °F 41.5 °F 30.09 in SW 5.2 mph 9.2 mph 57 % 0.00 in
15:42 56.6 °F 41.5 °F 30.09 in SSW 3.2 mph 6.9 mph 57 % 0.00 in
15:47 56.5 °F 41.4 °F 30.09 in SSE 2.6 mph 4.6 mph 57 % 0.00 in
15:52 56.4 °F 41.3 °F 30.09 in SSE 3.5 mph 5.0 mph 57 % 0.00 in
15:57 56.2 °F 40.7 °F 30.09 in SSE 5.7 mph 8.1 mph 56 % 0.00 in
16:03 56.1 °F 41.5 °F 30.09 in South 2.3 mph 7.0 mph 58 % 0.00 in
16:08 56.1 °F 41.1 °F 30.09 in South 6.2 mph 9.2 mph 57 % 0.00 in
16:13 56.0 °F 41.0 °F 30.09 in SSE 2.2 mph 5.8 mph 57 % 0.00 in
16:18 56.0 °F 41.4 °F 30.09 in South 2.5 mph 5.8 mph 58 % 0.00 in
16:23 55.9 °F 40.9 °F 30.09 in SE 2.7 mph 5.8 mph 57 % 0.00 in
16:28 55.9 °F 40.9 °F 30.09 in South 3.9 mph 6.9 mph 57 % 0.00 in
16:33 55.7 °F 40.7 °F 30.10 in South 3.5 mph 7.0 mph 57 % 0.00 in
16:38 55.6 °F 40.6 °F 30.10 in SSW 3.2 mph 4.6 mph 57 % 0.00 in
16:48 55.4 °F 41.3 °F 30.10 in SSW 3.0 mph 5.8 mph 59 % 0.00 in
16:54 55.3 °F 41.2 °F 30.10 in SW 1.0 mph 3.5 mph 59 % 0.00 in
16:59 55.1 °F 40.6 °F 30.11 in SSW 2.3 mph 6.0 mph 58 % 0.00 in
17:04 55.0 °F 40.5 °F 30.10 in South 4.1 mph 5.8 mph 58 % 0.00 in
17:09 54.8 °F 40.7 °F 30.10 in South 0.8 mph 3.5 mph 59 % 0.00 in
17:14 54.6 °F 40.6 °F 30.10 in SSE 2.2 mph 5.0 mph 59 % 0.00 in
17:19 54.4 °F 40.4 °F 30.10 in SW 2.4 mph 4.6 mph 59 % 0.00 in
17:24 54.1 °F 40.5 °F 30.10 in SE 3.2 mph 6.0 mph 60 % 0.00 in
17:29 53.5 °F 40.4 °F 30.10 in SSE 2.0 mph 4.6 mph 61 % 0.00 in
17:34 53.1 °F 40.4 °F 30.10 in SSE 2.6 mph 5.8 mph 62 % 0.00 in
17:39 52.7 °F 40.5 °F 30.11 in South 2.9 mph 5.8 mph 63 % 0.00 in
17:45 52.3 °F 40.5 °F 30.11 in South 3.4 mph 5.8 mph 64 % 0.00 in
17:50 52.0 °F 40.6 °F 30.11 in SSE 4.9 mph 7.0 mph 65 % 0.00 in
17:55 51.7 °F 40.7 °F 30.10 in South 0.3 mph 3.5 mph 66 % 0.00 in
18:00 51.5 °F 40.5 °F 30.10 in Calm   1.2 mph 66 % 0.00 in
18:05 51.4 °F 40.4 °F 30.11 in South 0.3 mph 2.3 mph 66 % 0.00 in
18:10 51.2 °F 41.0 °F 30.11 in South 0.5 mph 1.2 mph 68 % 0.00 in
18:15 50.9 °F 40.7 °F 30.11 in SE 2.0 mph 3.5 mph 68 % 0.00 in
18:20 50.6 °F 40.8 °F 30.11 in SE 2.3 mph 3.5 mph 69 % 0.00 in
18:25 50.4 °F 41.0 °F 30.12 in Calm   1.2 mph 70 % 0.00 in
18:31 50.2 °F 40.8 °F 30.12 in SE 1.0 mph 2.0 mph 70 % 0.00 in
18:36 49.9 °F 40.9 °F 30.12 in SSE 1.7 mph 3.5 mph 71 % 0.00 in
18:41 49.7 °F 41.0 °F 30.13 in SSE 2.6 mph 5.8 mph 72 % 0.00 in
18:46 49.5 °F 40.8 °F 30.13 in Calm     72 % 0.00 in
18:51 49.3 °F 41.0 °F 30.13 in SSE 1.0 mph 3.0 mph 73 % 0.00 in
18:56 49.1 °F 41.2 °F 30.13 in Calm   1.2 mph 74 % 0.00 in
19:06 48.9 °F 41.3 °F 30.13 in Calm     75 % 0.00 in
19:11 48.7 °F 41.1 °F 30.14 in SSE 0.3 mph 1.2 mph 75 % 0.00 in
19:16 48.6 °F 41.4 °F 30.14 in Calm   1.0 mph 76 % 0.00 in
19:22 48.5 °F 41.3 °F 30.15 in Calm   1.2 mph 76 % 0.00 in
19:27 48.3 °F 41.4 °F 30.14 in SSE 0.6 mph 2.3 mph 77 % 0.00 in
19:32 48.1 °F 41.6 °F 30.14 in ESE 0.4 mph 2.3 mph 78 % 0.00 in
19:37 47.8 °F 41.6 °F 30.14 in SSE 0.8 mph 3.0 mph 79 % 0.00 in
19:47 47.6 °F 41.7 °F 30.14 in SSE 0.1 mph 1.2 mph 80 % 0.00 in
19:52 47.4 °F 41.5 °F 30.14 in Calm     80 % 0.00 in
19:57 47.2 °F 41.3 °F 30.14 in Calm     80 % 0.00 in
20:02 47.0 °F 41.1 °F 30.14 in Calm     80 % 0.00 in
20:07 46.8 °F 41.0 °F 30.14 in Calm   1.2 mph 80 % 0.00 in
20:13 46.6 °F 41.1 °F 30.14 in SSE 0.3 mph 1.2 mph 81 % 0.00 in
20:18 46.4 °F 41.2 °F 30.14 in SSE 0.4 mph 2.3 mph 82 % 0.00 in
20:23 46.2 °F 41.3 °F 30.14 in SE 0.9 mph 3.5 mph 83 % 0.00 in
20:28 46.0 °F 41.1 °F 30.14 in SE 0.1 mph 1.2 mph 83 % 0.00 in
20:33 45.9 °F 41.3 °F 30.14 in Calm     84 % 0.00 in
20:38 45.8 °F 41.2 °F 30.14 in South 2.3 mph 4.0 mph 84 % 0.00 in
20:43 45.6 °F 41.4 °F 30.14 in SE 0.3 mph 3.5 mph 85 % 0.00 in
20:48 45.6 °F 41.7 °F 30.14 in SSE 2.0 mph 3.5 mph 86 % 0.00 in
20:53 45.5 °F 41.6 °F 30.14 in SSE 0.1 mph 2.3 mph 86 % 0.00 in
20:58 45.5 °F 41.6 °F 30.14 in SSE 0.8 mph 1.2 mph 86 % 0.00 in
21:04 45.4 °F 41.5 °F 30.14 in SSE 1.0 mph 2.0 mph 86 % 0.00 in
21:09 45.2 °F 41.3 °F 30.14 in Calm   1.2 mph 86 % 0.00 in
21:14 45.2 °F 41.3 °F 30.14 in SSE 0.4 mph 2.3 mph 86 % 0.00 in
21:19 45.1 °F 41.2 °F 30.14 in SSE 0.9 mph 2.3 mph 86 % 0.00 in
21:24 45.0 °F 41.1 °F 30.14 in SSE 0.2 mph 2.3 mph 86 % 0.00 in
21:29 44.9 °F 41.3 °F 30.14 in Calm   1.2 mph 87 % 0.00 in
21:34 44.8 °F 41.2 °F 30.14 in Calm     87 % 0.00 in
21:39 44.7 °F 41.1 °F 30.15 in Calm     87 % 0.00 in
21:44 44.6 °F 41.0 °F 30.15 in SSE 0.3 mph 1.2 mph 87 % 0.00 in
21:55 44.4 °F 40.8 °F 30.15 in Calm     87 % 0.00 in
22:00 44.3 °F 40.7 °F 30.15 in Calm     87 % 0.00 in
22:05 44.1 °F 40.5 °F 30.15 in Calm     87 % 0.00 in
22:10 44.0 °F 40.4 °F 30.15 in Calm     87 % 0.00 in
22:15 43.9 °F 40.6 °F 30.15 in Calm     88 % 0.00 in
22:20 43.8 °F 40.2 °F 30.15 in Calm     87 % 0.00 in
22:25 43.7 °F 40.1 °F 30.15 in Calm     87 % 0.00 in
22:30 43.5 °F 39.9 °F 30.15 in Calm     87 % 0.00 in
22:35 43.4 °F 40.1 °F 30.14 in Calm     88 % 0.00 in
22:40 43.3 °F 40.3 °F 30.14 in Calm   1.2 mph 89 % 0.00 in
22:46 43.1 °F 40.1 °F 30.14 in Calm     89 % 0.00 in
22:51 43.0 °F 40.0 °F 30.13 in Calm     89 % 0.00 in
22:56 42.9 °F 39.9 °F 30.13 in Calm     89 % 0.00 in
23:01 42.8 °F 39.8 °F 30.13 in Calm     89 % 0.00 in
23:06 42.7 °F 39.7 °F 30.13 in Calm     89 % 0.00 in
23:11 42.6 °F 39.6 °F 30.12 in Calm     89 % 0.00 in
23:16 42.5 °F 39.8 °F 30.12 in Calm     90 % 0.00 in
23:21 42.4 °F 39.7 °F 30.13 in Calm     90 % 0.00 in
23:26 42.3 °F 39.6 °F 30.13 in Calm     90 % 0.00 in
23:31 42.1 °F 39.4 °F 30.13 in Calm     90 % 0.00 in
23:37 42.0 °F 39.3 °F 30.13 in SSE 0.7 mph 1.2 mph 90 % 0.00 in
23:42 41.9 °F 39.2 °F 30.13 in Calm   1.2 mph 90 % 0.00 in
23:47 41.8 °F 39.1 °F 30.13 in Calm     90 % 0.00 in
23:52 41.7 °F 39.0 °F 30.13 in Calm     90 % 0.00 in
23:57 41.6 °F 38.9 °F 30.12 in Calm     90 % 0.00 in
Crab Meadow Weather
Compliments of Weather Underground - 3 mb

Script developed by  Jim McMurry - jmcmurry@mwt.net Adapted for the template by  Wim van der Kuil - Leuven-Template.eu

Extremes: The longest period without measurable rainfall in the United States was 767 days at Bagdad, California.